LLHA/HFA METAR and TAF weather

Enter ICAO airport designator
Station Type Date Time Source
LLHA METAR 2019/04/20 17:50 UTC NOAA

LLHA 201750Z 26006KT 230V290 9999 SCT028 17/10 Q1014


Station Type Date Time Source
LLHA Decoded METAR 2019/04/20 17:50 UTC NOAA

Sde-Haifa Haifa, Israel (LLHA) 32-48N 035-02E 8M
Apr 20, 2019 - 01:50 PM EDT / 2019.04.20 1750 UTC
Wind: from the W (260 degrees) at 7 MPH (6 KT) (direction variable):0
Visibility: greater than 7 mile(s):0
Sky conditions: partly cloudy
Temperature: 62 F (17 C)
Dew Point: 50 F (10 C)
Relative Humidity: 63%
Pressure (altimeter): 29.94 in. Hg (1014 hPa)
ob: LLHA 201750Z 26006KT 230V290 9999 SCT028 17/10 Q1014
cycle: 18

Station Type Date Time Source
LLHA TAF 2019/04/20 18:00 UTC NOAA

TAF LLHA 201705Z 2018/2118 25010KT 9999 SCT030
TEMPO 2018/2107 24015G25KT 7000 RA FEW020TCU BKN025
FM210700 30020G30KT 9999 SCT030 PROB30 2107/2113 5000 TSRA SCT015 FEW025CB BKN030 TX18/2112Z TN14/2103Z

Example: see airport list